Time;durP1;ratioP1;P1;durP2;ratioP2;P2;SDS_P1;SDS_P2;PMS_P1;PMS_P2;Temp;Humidity;BMP_temperature;BMP_pressure;BME280_temperature;BME280_humidity;BME280_pressure;Samples;Min_cycle;Max_cycle;Signal;HPM_P1;HPM_P2
2023/06/20 00:01:23;;;;;;;14.02;12.73;;;;;;;;;;10028368;29;20051;-68
2023/06/20 00:06:21;;;;;;;13.90;12.15;;;;;;;;;;10032644;29;20074;-67
2023/06/20 00:11:18;;;;;;;13.52;11.55;;;;;;;;;;10034405;29;20075;-68
2023/06/20 00:16:20;;;;;;;12.85;11.68;;;;;;;;;;10031531;29;20058;-68
2023/06/20 00:21:19;;;;;;;12.82;11.23;;;;;;;;;;10033021;29;20039;-68
2023/06/20 00:26:15;;;;;;;13.60;11.70;;;;;;;;;;10033456;29;20074;-69
2023/06/20 00:31:11;;;;;;;14.50;12.63;;;;;;;;;;10022934;29;20510;-68
2023/06/20 00:36:08;;;;;;;15.50;13.07;;;;;;;;;;10033296;29;20577;-68
2023/06/20 00:41:04;;;;;;;14.73;13.32;;;;;;;;;;10033311;29;20530;-67
2023/06/20 00:46:00;;;;;;;14.13;12.63;;;;;;;;;;10031927;29;20513;-66
2023/06/20 00:50:57;;;;;;;14.45;12.95;;;;;;;;;;10033056;29;20081;-69
2023/06/20 00:55:54;;;;;;;14.30;12.80;;;;;;;;;;10015319;29;20529;-68
2023/06/20 01:00:50;;;;;;;13.95;12.57;;;;;;;;;;10033014;29;20055;-68
2023/06/20 01:05:53;;;;;;;15.95;14.20;;;;;;;;;;10027365;29;20152;-68
2023/06/20 01:10:55;;;;;;;14.13;12.77;;;;;;;;;;10032897;29;20724;-70
2023/06/20 01:15:52;;;;;;;15.68;14.07;;;;;;;;;;10028937;29;20083;-68
2023/06/20 01:20:50;;;;;;;14.50;13.02;;;;;;;;;;10032484;29;20051;-69
2023/06/20 01:26:02;;;;;;;14.75;12.85;;;;;;;;;;10029327;29;20073;-70
2023/06/20 01:31:05;;;;;;;14.38;12.88;;;;;;;;;;10032104;29;20056;-69
2023/06/20 01:36:01;;;;;;;15.00;12.95;;;;;;;;;;10034062;29;20050;-70
2023/06/20 01:40:59;;;;;;;17.15;12.95;;;;;;;;;;10038934;29;20051;-69
2023/06/20 01:45:56;;;;;;;14.10;12.70;;;;;;;;;;10040406;29;20051;-70
2023/06/20 01:50:53;;;;;;;14.52;13.10;;;;;;;;;;10039609;29;20510;-71
2023/06/20 01:55:51;;;;;;;14.13;12.68;;;;;;;;;;10039926;29;20051;-71
2023/06/20 02:00:47;;;;;;;14.65;13.15;;;;;;;;;;10038643;29;20051;-71
2023/06/20 02:05:45;;;;;;;15.18;13.23;;;;;;;;;;10038010;29;20052;-71
2023/06/20 02:10:41;;;;;;;15.27;13.88;;;;;;;;;;10020985;29;20521;-69
2023/06/20 02:15:38;;;;;;;14.23;12.88;;;;;;;;;;10033549;29;20071;-69
2023/06/20 02:20:35;;;;;;;14.80;13.40;;;;;;;;;;10020551;29;20058;-69
2023/06/20 02:25:35;;;;;;;17.40;15.27;;;;;;;;;;10037421;29;20055;-69
2023/06/20 02:30:34;;;;;;;19.38;14.20;;;;;;;;;;10035970;29;20111;-69
2023/06/20 02:35:31;;;;;;;15.40;13.90;;;;;;;;;;10028688;29;20455;-69
2023/06/20 02:40:28;;;;;;;15.90;14.13;;;;;;;;;;10027610;29;20055;-69
2023/06/20 02:45:24;;;;;;;14.73;13.32;;;;;;;;;;10034905;29;20095;-69
2023/06/20 02:50:24;;;;;;;16.55;14.98;;;;;;;;;;10036474;29;20147;-70
2023/06/20 02:55:23;;;;;;;17.02;15.23;;;;;;;;;;10032262;29;20107;-70
2023/06/20 03:00:21;;;;;;;17.05;15.40;;;;;;;;;;10035042;29;20134;-69
2023/06/20 03:05:18;;;;;;;17.33;15.52;;;;;;;;;;10031512;29;20051;-70
2023/06/20 03:10:14;;;;;;;16.73;15.15;;;;;;;;;;10034985;29;20048;-71
2023/06/20 03:15:11;;;;;;;17.58;15.82;;;;;;;;;;10031575;29;20105;-71
2023/06/20 03:20:09;;;;;;;17.20;15.40;;;;;;;;;;10036145;29;20059;-71
2023/06/20 03:25:06;;;;;;;17.23;15.52;;;;;;;;;;10031508;29;20048;-68
2023/06/20 03:30:03;;;;;;;17.48;15.88;;;;;;;;;;10029206;29;20285;-70
2023/06/20 03:35:00;;;;;;;16.67;15.10;;;;;;;;;;10013084;29;20111;-68
2023/06/20 03:39:56;;;;;;;17.90;16.10;;;;;;;;;;10023328;29;20047;-68
2023/06/20 03:44:52;;;;;;;16.92;15.30;;;;;;;;;;10029837;29;20051;-73
2023/06/20 03:49:55;;;;;;;16.27;14.77;;;;;;;;;;10027996;29;20056;-73
2023/06/20 03:55:09;;;;;;;17.95;16.10;;;;;;;;;;10013658;29;20036;-74
2023/06/20 04:00:11;;;;;;;17.38;15.68;;;;;;;;;;10010413;29;20074;-75
2023/06/20 04:05:09;;;;;;;19.15;17.17;;;;;;;;;;10031231;29;20046;-74
2023/06/20 04:10:05;;;;;;;19.25;16.33;;;;;;;;;;10023614;29;20047;-74
2023/06/20 04:15:02;;;;;;;17.40;15.65;;;;;;;;;;10015808;29;20138;-75
2023/06/20 04:19:59;;;;;;;17.75;16.10;;;;;;;;;;10013023;29;20055;-74
2023/06/20 04:24:56;;;;;;;17.38;15.77;;;;;;;;;;10027846;29;20053;-75
2023/06/20 04:29:53;;;;;;;17.70;16.00;;;;;;;;;;10028240;29;20497;-74
2023/06/20 04:34:52;;;;;;;17.25;15.43;;;;;;;;;;10015425;29;20052;-74
2023/06/20 04:39:49;;;;;;;18.02;16.33;;;;;;;;;;10006120;29;20051;-74
2023/06/20 04:44:48;;;;;;;17.17;15.38;;;;;;;;;;10006720;29;20491;-74
2023/06/20 04:49:46;;;;;;;16.08;14.43;;;;;;;;;;10024676;29;20043;-74
2023/06/20 04:54:42;;;;;;;16.00;14.60;;;;;;;;;;10019268;29;20054;-74
2023/06/20 04:59:39;;;;;;;16.30;14.70;;;;;;;;;;10022636;29;20065;-71
2023/06/20 05:04:36;;;;;;;15.05;13.65;;;;;;;;;;10024642;29;20051;-73
2023/06/20 05:09:32;;;;;;;14.85;13.52;;;;;;;;;;10029917;29;20051;-74
2023/06/20 05:14:28;;;;;;;14.10;12.88;;;;;;;;;;10027798;29;20048;-74
2023/06/20 05:19:25;;;;;;;13.57;12.43;;;;;;;;;;10024866;29;20633;-72
2023/06/20 05:24:21;;;;;;;14.38;13.07;;;;;;;;;;10026050;29;20043;-72
2023/06/20 05:29:17;;;;;;;13.13;12.05;;;;;;;;;;10024262;29;20047;-72
2023/06/20 05:34:14;;;;;;;14.20;12.80;;;;;;;;;;10009529;29;20075;-72
2023/06/20 05:39:14;;;;;;;14.18;12.80;;;;;;;;;;10022519;29;20048;-72
2023/06/20 05:44:10;;;;;;;13.43;12.23;;;;;;;;;;10030990;29;20454;-72
2023/06/20 05:49:10;;;;;;;12.55;11.45;;;;;;;;;;10025802;29;20047;-72
2023/06/20 05:54:07;;;;;;;11.93;10.93;;;;;;;;;;10025983;29;20048;-71
2023/06/20 05:59:04;;;;;;;11.90;10.90;;;;;;;;;;10031085;29;20134;-72
2023/06/20 06:04:01;;;;;;;11.32;10.32;;;;;;;;;;10023895;29;20123;-72
2023/06/20 06:08:58;;;;;;;10.77;9.88;;;;;;;;;;10026237;29;20036;-72
2023/06/20 06:13:55;;;;;;;11.70;10.57;;;;;;;;;;10033760;29;20129;-72
2023/06/20 06:18:51;;;;;;;10.48;9.57;;;;;;;;;;10028565;29;20116;-72
2023/06/20 06:23:48;;;;;;;10.60;9.73;;;;;;;;;;10035457;29;20204;-72
2023/06/20 06:28:44;;;;;;;10.65;9.65;;;;;;;;;;10032769;29;20383;-72
2023/06/20 06:33:41;;;;;;;10.57;9.68;;;;;;;;;;10036610;29;20059;-69
2023/06/20 06:38:38;;;;;;;10.55;9.73;;;;;;;;;;10035878;29;20544;-72
2023/06/20 06:43:34;;;;;;;9.88;8.98;;;;;;;;;;10035962;29;20046;-72
2023/06/20 06:48:30;;;;;;;10.98;10.05;;;;;;;;;;10030709;29;20055;-70
2023/06/20 06:53:27;;;;;;;10.98;9.98;;;;;;;;;;10035273;29;20048;-72
2023/06/20 06:58:23;;;;;;;10.73;9.73;;;;;;;;;;10033700;29;20110;-72
2023/06/20 07:03:20;;;;;;;10.23;9.43;;;;;;;;;;10035024;29;20044;-72
2023/06/20 07:08:16;;;;;;;10.13;9.23;;;;;;;;;;10029581;29;20051;-69
2023/06/20 07:13:12;;;;;;;11.23;10.05;;;;;;;;;;10034615;29;20075;-72
2023/06/20 07:18:09;;;;;;;10.40;9.48;;;;;;;;;;10034292;29;20048;-72
2023/06/20 07:23:05;;;;;;;10.52;9.63;;;;;;;;;;10030052;29;20106;-71
2023/06/20 07:28:02;;;;;;;9.90;9.00;;;;;;;;;;10031565;29;20181;-71
2023/06/20 07:32:58;;;;;;;10.68;9.73;;;;;;;;;;10033364;29;20426;-71
2023/06/20 07:37:54;;;;;;;10.60;9.32;;;;;;;;;;10032889;29;20741;-71
2023/06/20 07:42:51;;;;;;;10.07;9.27;;;;;;;;;;10031949;29;20196;-71
2023/06/20 07:47:47;;;;;;;9.65;8.80;;;;;;;;;;10032549;29;20516;-71
2023/06/20 07:52:44;;;;;;;9.57;8.73;;;;;;;;;;10026055;29;20075;-71
2023/06/20 07:57:40;;;;;;;10.05;9.25;;;;;;;;;;10029037;29;20095;-69
2023/06/20 08:02:36;;;;;;;10.23;9.32;;;;;;;;;;10033301;29;20403;-71
2023/06/20 08:07:33;;;;;;;9.95;8.95;;;;;;;;;;10037145;29;20174;-71
2023/06/20 08:12:29;;;;;;;9.38;8.48;;;;;;;;;;10012262;29;20048;-71
2023/06/20 08:17:26;;;;;;;9.93;9.00;;;;;;;;;;10033217;29;20082;-71
2023/06/20 08:22:27;;;;;;;8.82;8.13;;;;;;;;;;10028661;29;20228;-71
2023/06/20 08:27:26;;;;;;;9.23;8.43;;;;;;;;;;10031391;29;20458;-71
2023/06/20 08:32:22;;;;;;;9.73;8.90;;;;;;;;;;10028974;29;20060;-71
2023/06/20 08:37:21;;;;;;;10.10;9.20;;;;;;;;;;10031074;29;20438;-71
2023/06/20 08:42:18;;;;;;;10.07;9.20;;;;;;;;;;10027664;29;20040;-71
2023/06/20 08:47:15;;;;;;;10.95;9.95;;;;;;;;;;10031718;29;20531;-71
2023/06/20 08:52:12;;;;;;;10.05;9.25;;;;;;;;;;10029198;29;20576;-71
2023/06/20 08:57:08;;;;;;;8.55;7.88;;;;;;;;;;10029833;29;20560;-71
2023/06/20 09:02:05;;;;;;;10.40;9.45;;;;;;;;;;10032269;29;20075;-71
2023/06/20 09:07:01;;;;;;;9.50;8.70;;;;;;;;;;10023804;29;20162;-71
2023/06/20 09:11:59;;;;;;;13.63;9.55;;;;;;;;;;10031237;29;20102;-71
2023/06/20 09:16:56;;;;;;;9.98;9.18;;;;;;;;;;10026855;29;20047;-71
2023/06/20 09:22:02;;;;;;;10.60;9.40;;;;;;;;;;10031317;29;20433;-71
2023/06/20 09:27:08;;;;;;;11.77;9.40;;;;;;;;;;10022433;29;20079;-71
2023/06/20 09:32:17;;;;;;;10.05;9.05;;;;;;;;;;10029937;29;20048;-71
2023/06/20 09:37:19;;;;;;;10.07;9.05;;;;;;;;;;10028745;29;20558;-71
2023/06/20 09:42:15;;;;;;;11.65;10.35;;;;;;;;;;10027748;29;20070;-71
2023/06/20 09:47:12;;;;;;;9.95;9.15;;;;;;;;;;10033650;29;20062;-71
2023/06/20 09:52:14;;;;;;;10.88;9.88;;;;;;;;;;10038138;29;20085;-71
2023/06/20 09:57:14;;;;;;;9.65;8.85;;;;;;;;;;10035851;29;20050;-71
2023/06/20 10:02:10;;;;;;;10.40;9.45;;;;;;;;;;10035707;29;20090;-71
2023/06/20 10:07:06;;;;;;;10.88;9.88;;;;;;;;;;10016386;29;20051;-71
2023/06/20 10:12:04;;;;;;;11.13;10.02;;;;;;;;;;10036313;29;20106;-71
2023/06/20 10:17:06;;;;;;;11.20;10.23;;;;;;;;;;10034581;29;20510;-71
2023/06/20 10:22:03;;;;;;;11.43;10.27;;;;;;;;;;10036996;29;20060;-71
2023/06/20 10:27:00;;;;;;;11.23;10.32;;;;;;;;;;10035600;29;20039;-71
2023/06/20 10:32:02;;;;;;;12.35;11.25;;;;;;;;;;10034806;29;20058;-71
2023/06/20 10:37:14;;;;;;;12.45;11.07;;;;;;;;;;10036059;29;20415;-71
2023/06/20 10:42:29;;;;;;;11.45;10.45;;;;;;;;;;10032049;29;20525;-71
2023/06/20 10:47:27;;;;;;;11.98;10.98;;;;;;;;;;10037297;29;20044;-71
2023/06/20 10:52:24;;;;;;;11.38;10.30;;;;;;;;;;10033324;29;20048;-71
2023/06/20 10:57:21;;;;;;;11.82;10.63;;;;;;;;;;10029811;29;20055;-71
2023/06/20 11:02:17;;;;;;;11.82;10.80;;;;;;;;;;10032797;29;20883;-71
2023/06/20 11:07:14;;;;;;;11.50;10.40;;;;;;;;;;10032866;29;20673;-71
2023/06/20 11:12:13;;;;;;;12.10;10.90;;;;;;;;;;10034840;29;20047;-71
2023/06/20 11:17:10;;;;;;;11.65;10.48;;;;;;;;;;10028157;29;20522;-71
2023/06/20 11:22:06;;;;;;;11.90;10.90;;;;;;;;;;10033369;29;20262;-71
2023/06/20 11:27:12;;;;;;;11.60;10.52;;;;;;;;;;10034554;29;20054;-71
2023/06/20 11:32:10;;;;;;;11.63;10.63;;;;;;;;;;10027195;29;20051;-71
2023/06/20 11:37:07;;;;;;;11.57;10.68;;;;;;;;;;10027916;29;20539;-71
2023/06/20 11:42:13;;;;;;;11.70;10.70;;;;;;;;;;10030801;29;20051;-71
2023/06/20 11:47:09;;;;;;;12.38;11.38;;;;;;;;;;10033018;29;20123;-71
2023/06/20 11:52:07;;;;;;;11.77;10.68;;;;;;;;;;10028396;29;20457;-71
2023/06/20 11:57:04;;;;;;;12.05;11.02;;;;;;;;;;10031753;29;20067;-71
2023/06/20 12:02:00;;;;;;;12.20;10.98;;;;;;;;;;10013140;29;20091;-71
2023/06/20 12:07:03;;;;;;;12.05;11.02;;;;;;;;;;10031989;29;20545;-71
2023/06/20 12:12:03;;;;;;;11.90;10.77;;;;;;;;;;10028981;29;20051;-71
2023/06/20 12:16:59;;;;;;;12.35;11.15;;;;;;;;;;10031749;29;20529;-71
2023/06/20 12:21:55;;;;;;;11.48;10.48;;;;;;;;;;10031957;29;20059;-71
2023/06/20 12:26:52;;;;;;;12.10;11.10;;;;;;;;;;10029018;29;20530;-71
2023/06/20 12:31:48;;;;;;;11.45;10.50;;;;;;;;;;10026239;29;20048;-71
2023/06/20 12:36:44;;;;;;;11.93;10.82;;;;;;;;;;10030164;29;20067;-71
2023/06/20 12:41:41;;;;;;;13.25;11.35;;;;;;;;;;10030751;29;20090;-71
2023/06/20 12:46:37;;;;;;;12.40;11.23;;;;;;;;;;10025762;29;20062;-71
2023/06/20 12:51:34;;;;;;;11.65;10.65;;;;;;;;;;10027218;29;20421;-71
2023/06/20 12:56:31;;;;;;;12.80;11.00;;;;;;;;;;10030381;29;20055;-71
2023/06/20 13:01:27;;;;;;;11.10;10.20;;;;;;;;;;10030716;29;20525;-71
2023/06/20 13:06:24;;;;;;;12.70;10.27;;;;;;;;;;10027727;29;20039;-71
2023/06/20 13:11:20;;;;;;;12.23;11.18;;;;;;;;;;10030256;29;20054;-71
2023/06/20 13:16:16;;;;;;;10.93;9.98;;;;;;;;;;10027666;29;20395;-72
2023/06/20 13:21:13;;;;;;;12.95;11.65;;;;;;;;;;10029533;29;20050;-72
2023/06/20 13:26:11;;;;;;;12.05;10.70;;;;;;;;;;10026740;29;20055;-71
2023/06/20 13:31:08;;;;;;;11.05;10.02;;;;;;;;;;10030376;29;20107;-71
2023/06/20 13:36:07;;;;;;;11.80;10.70;;;;;;;;;;10028928;29;20102;-71
2023/06/20 13:41:03;;;;;;;12.13;11.02;;;;;;;;;;10004054;29;20057;-71
2023/06/20 13:46:00;;;;;;;12.15;11.15;;;;;;;;;;10023383;29;20285;-71
2023/06/20 13:50:56;;;;;;;12.35;11.25;;;;;;;;;;10029422;29;20044;-72
2023/06/20 13:55:54;;;;;;;11.55;10.45;;;;;;;;;;10028154;29;20079;-71
2023/06/20 14:00:50;;;;;;;10.95;10.05;;;;;;;;;;10027707;29;20151;-71
2023/06/20 14:05:47;;;;;;;12.63;11.60;;;;;;;;;;10032180;29;20040;-71
2023/06/20 14:10:43;;;;;;;11.10;10.20;;;;;;;;;;10028852;29;20099;-72
2023/06/20 14:15:41;;;;;;;11.60;10.68;;;;;;;;;;10029036;29;20086;-72
2023/06/20 14:20:37;;;;;;;11.77;10.82;;;;;;;;;;10028622;29;20554;-72
2023/06/20 14:25:33;;;;;;;11.27;10.38;;;;;;;;;;10027529;29;20507;-72
2023/06/20 14:30:32;;;;;;;11.73;10.73;;;;;;;;;;10024934;29;20425;-71
2023/06/20 14:35:28;;;;;;;11.77;10.77;;;;;;;;;;10035813;29;20063;-72
2023/06/20 14:40:25;;;;;;;11.75;10.63;;;;;;;;;;10037527;29;20125;-71
2023/06/20 14:45:23;;;;;;;10.55;9.60;;;;;;;;;;10031593;29;20050;-71
2023/06/20 14:50:24;;;;;;;11.70;10.75;;;;;;;;;;10036873;29;20450;-72
2023/06/20 14:55:40;;;;;;;11.48;10.40;;;;;;;;;;10009931;29;20091;-71
2023/06/20 15:00:39;;;;;;;11.75;10.75;;;;;;;;;;10035644;29;20056;-72
2023/06/20 15:05:35;;;;;;;11.32;10.32;;;;;;;;;;10035360;29;20138;-71
2023/06/20 15:10:32;;;;;;;11.73;10.77;;;;;;;;;;10033953;29;20052;-71
2023/06/20 15:15:28;;;;;;;11.57;10.57;;;;;;;;;;10035930;29;20067;-71
2023/06/20 15:20:25;;;;;;;11.38;10.38;;;;;;;;;;10035753;29;20107;-72
2023/06/20 15:25:22;;;;;;;11.27;10.32;;;;;;;;;;10033857;29;20059;-70
2023/06/20 15:30:18;;;;;;;11.07;10.10;;;;;;;;;;10036508;29;20107;-72
2023/06/20 15:35:15;;;;;;;11.90;9.68;;;;;;;;;;10031974;29;20048;-72
2023/06/20 15:40:12;;;;;;;11.05;10.00;;;;;;;;;;10034986;29;20043;-72
2023/06/20 15:45:08;;;;;;;10.68;9.68;;;;;;;;;;10034503;29;20409;-72
2023/06/20 15:50:05;;;;;;;10.88;10.00;;;;;;;;;;10035720;29;20525;-72
2023/06/20 15:55:01;;;;;;;12.02;11.10;;;;;;;;;;10032215;29;20079;-72
2023/06/20 15:59:57;;;;;;;12.80;10.85;;;;;;;;;;10034611;29;20044;-71
2023/06/20 16:04:54;;;;;;;11.80;10.57;;;;;;;;;;10036769;29;20501;-71
2023/06/20 16:09:51;;;;;;;11.07;10.07;;;;;;;;;;10032756;29;20056;-71
2023/06/20 16:14:47;;;;;;;11.95;10.95;;;;;;;;;;10030370;29;20044;-71
2023/06/20 16:19:43;;;;;;;11.40;10.30;;;;;;;;;;10031893;29;20055;-70
2023/06/20 16:24:41;;;;;;;10.93;9.85;;;;;;;;;;10037410;29;20081;-71
2023/06/20 16:29:38;;;;;;;11.38;10.48;;;;;;;;;;10029996;29;20050;-72
2023/06/20 16:34:35;;;;;;;10.93;10.02;;;;;;;;;;10026552;29;20110;-70
2023/06/20 16:39:32;;;;;;;11.55;10.55;;;;;;;;;;10034914;29;20050;-70
2023/06/20 16:44:34;;;;;;;12.45;11.20;;;;;;;;;;10030426;29;20413;-77
2023/06/20 16:49:31;;;;;;;10.82;9.85;;;;;;;;;;10023946;29;20040;-76
2023/06/20 16:54:27;;;;;;;11.35;10.20;;;;;;;;;;10030303;29;20402;-77
2023/06/20 16:59:23;;;;;;;11.50;10.40;;;;;;;;;;10013756;29;20220;-76
2023/06/20 17:04:20;;;;;;;11.90;10.98;;;;;;;;;;10030099;29;20051;-76
2023/06/20 17:09:16;;;;;;;12.25;11.25;;;;;;;;;;10029223;29;20078;-75
2023/06/20 17:14:12;;;;;;;10.93;10.02;;;;;;;;;;10028050;29;20043;-76
2023/06/20 17:19:09;;;;;;;11.02;10.10;;;;;;;;;;10033745;29;20083;-76
2023/06/20 17:24:06;;;;;;;11.77;10.63;;;;;;;;;;10030451;29;20063;-74
2023/06/20 17:29:03;;;;;;;11.40;10.40;;;;;;;;;;10028439;29;20523;-74
2023/06/20 17:33:59;;;;;;;10.60;9.60;;;;;;;;;;10031035;29;20044;-75
2023/06/20 17:38:58;;;;;;;11.50;10.50;;;;;;;;;;10029417;29;20055;-76
2023/06/20 17:43:54;;;;;;;10.70;9.68;;;;;;;;;;10031364;29;20052;-75
2023/06/20 17:48:51;;;;;;;10.25;9.30;;;;;;;;;;10018254;29;20079;-75
2023/06/20 17:53:47;;;;;;;10.13;9.23;;;;;;;;;;10029064;29;20569;-74
2023/06/20 17:58:43;;;;;;;10.95;9.63;;;;;;;;;;10029138;29;20131;-71
2023/06/20 18:03:40;;;;;;;11.18;10.20;;;;;;;;;;10031570;29;20467;-70
2023/06/20 18:08:37;;;;;;;10.98;9.95;;;;;;;;;;10035434;29;20103;-71
2023/06/20 18:13:36;;;;;;;11.57;10.43;;;;;;;;;;10022083;29;20058;-71
2023/06/20 18:18:33;;;;;;;10.65;9.75;;;;;;;;;;10029519;29;20073;-71
2023/06/20 18:23:32;;;;;;;13.43;10.48;;;;;;;;;;10039882;29;20114;-70
2023/06/20 18:28:28;;;;;;;10.68;9.57;;;;;;;;;;10036421;29;20044;-69
2023/06/20 18:33:25;;;;;;;10.45;9.50;;;;;;;;;;10036215;29;20056;-70
2023/06/20 18:38:21;;;;;;;11.55;10.45;;;;;;;;;;10035232;29;20043;-71
2023/06/20 18:43:19;;;;;;;10.70;9.65;;;;;;;;;;10035591;29;20074;-71
2023/06/20 18:48:15;;;;;;;10.75;9.70;;;;;;;;;;10032418;29;20063;-70
2023/06/20 18:53:12;;;;;;;9.95;9.05;;;;;;;;;;10040000;29;20047;-70
2023/06/20 18:58:08;;;;;;;10.77;9.68;;;;;;;;;;10034242;29;20056;-70
2023/06/20 19:03:10;;;;;;;10.05;9.13;;;;;;;;;;10037511;29;20474;-71
2023/06/20 19:08:07;;;;;;;10.60;9.70;;;;;;;;;;10035978;29;20477;-71
2023/06/20 19:13:03;;;;;;;10.40;9.40;;;;;;;;;;10035495;29;20044;-71
2023/06/20 19:18:00;;;;;;;9.20;8.30;;;;;;;;;;10036110;29;20319;-71
2023/06/20 19:22:57;;;;;;;10.43;9.50;;;;;;;;;;10031697;29;20060;-70
2023/06/20 19:27:53;;;;;;;9.70;8.85;;;;;;;;;;10034210;29;20098;-71
2023/06/20 19:32:50;;;;;;;9.98;8.95;;;;;;;;;;10034651;29;20094;-71
2023/06/20 19:37:47;;;;;;;10.07;9.18;;;;;;;;;;10033744;29;20052;-70
2023/06/20 19:42:43;;;;;;;9.95;9.05;;;;;;;;;;10017464;29;20047;-71
2023/06/20 19:47:40;;;;;;;8.98;8.18;;;;;;;;;;10031305;29;20051;-72
2023/06/20 19:52:37;;;;;;;9.52;8.73;;;;;;;;;;10015215;29;20044;-71
2023/06/20 19:57:34;;;;;;;9.68;8.77;;;;;;;;;;10030947;29;20094;-71
2023/06/20 20:02:30;;;;;;;9.75;8.75;;;;;;;;;;10035338;29;20058;-68
2023/06/20 20:07:27;;;;;;;8.63;7.78;;;;;;;;;;10029944;29;20055;-68
2023/06/20 20:12:23;;;;;;;11.65;8.55;;;;;;;;;;10033343;29;20607;-68
2023/06/20 20:17:20;;;;;;;8.63;7.88;;;;;;;;;;10032469;29;20044;-68
2023/06/20 20:22:19;;;;;;;8.40;7.60;;;;;;;;;;10033118;29;20706;-68
2023/06/20 20:27:17;;;;;;;8.68;7.72;;;;;;;;;;10034278;29;20461;-68
2023/06/20 20:32:13;;;;;;;10.85;9.85;;;;;;;;;;10029118;29;20074;-68
2023/06/20 20:37:10;;;;;;;8.48;7.68;;;;;;;;;;10034145;29;20099;-68
2023/06/20 20:42:08;;;;;;;8.00;7.30;;;;;;;;;;10033843;29;20504;-68
2023/06/20 20:47:04;;;;;;;8.57;7.78;;;;;;;;;;10033365;29;20135;-68
2023/06/20 20:52:01;;;;;;;9.20;7.82;;;;;;;;;;10029279;29;20048;-67
2023/06/20 20:56:57;;;;;;;10.75;8.07;;;;;;;;;;10032067;29;20044;-65
2023/06/20 21:01:53;;;;;;;8.77;7.80;;;;;;;;;;10033091;29;20438;-66
2023/06/20 21:06:49;;;;;;;7.85;7.10;;;;;;;;;;10024833;29;20558;-68
2023/06/20 21:11:46;;;;;;;8.15;7.32;;;;;;;;;;10033064;29;20043;-68
2023/06/20 21:16:42;;;;;;;7.75;6.85;;;;;;;;;;10021495;29;20083;-66
2023/06/20 21:21:38;;;;;;;7.63;6.93;;;;;;;;;;10033535;29;20048;-67
2023/06/20 21:26:35;;;;;;;8.10;7.40;;;;;;;;;;10032034;29;20075;-67
2023/06/20 21:31:32;;;;;;;14.68;7.80;;;;;;;;;;10031846;29;20048;-67
2023/06/20 21:36:28;;;;;;;8.50;7.60;;;;;;;;;;10032085;29;20055;-67
2023/06/20 21:41:26;;;;;;;9.00;7.28;;;;;;;;;;10032273;29;20048;-67
2023/06/20 21:46:22;;;;;;;10.75;7.45;;;;;;;;;;10037441;29;20646;-68
2023/06/20 21:51:19;;;;;;;8.25;7.45;;;;;;;;;;10040489;29;20167;-67
2023/06/20 21:56:15;;;;;;;8.88;7.40;;;;;;;;;;10032632;29;20054;-67
2023/06/20 22:01:13;;;;;;;7.88;6.82;;;;;;;;;;10034989;29;20816;-67
2023/06/20 22:06:10;;;;;;;8.18;7.38;;;;;;;;;;10037911;29;20478;-67
2023/06/20 22:11:07;;;;;;;9.05;8.07;;;;;;;;;;10016388;29;20478;-67
2023/06/20 22:16:04;;;;;;;8.77;7.88;;;;;;;;;;10021589;29;20119;-67
2023/06/20 22:21:01;;;;;;;10.88;7.88;;;;;;;;;;10039094;29;20079;-68
2023/06/20 22:25:57;;;;;;;8.30;7.57;;;;;;;;;;10038841;29;20094;-67
2023/06/20 22:30:54;;;;;;;8.32;7.40;;;;;;;;;;10039633;29;20043;-68
2023/06/20 22:35:50;;;;;;;9.73;7.68;;;;;;;;;;10032811;29;20048;-68
2023/06/20 22:40:48;;;;;;;9.13;8.20;;;;;;;;;;10036980;29;20339;-68
2023/06/20 22:45:44;;;;;;;8.85;8.05;;;;;;;;;;10038598;29;20082;-68
2023/06/20 22:50:44;;;;;;;8.85;7.95;;;;;;;;;;10037298;29;20560;-66
2023/06/20 22:55:40;;;;;;;9.05;8.25;;;;;;;;;;10037736;29;20102;-66
2023/06/20 23:00:36;;;;;;;8.75;7.85;;;;;;;;;;10034835;29;20095;-67
2023/06/20 23:05:32;;;;;;;10.70;7.57;;;;;;;;;;10037013;29;20111;-68
2023/06/20 23:10:29;;;;;;;9.75;8.77;;;;;;;;;;10035894;29;20047;-66
2023/06/20 23:15:26;;;;;;;12.32;7.20;;;;;;;;;;10036088;29;20048;-66
2023/06/20 23:20:22;;;;;;;14.07;8.07;;;;;;;;;;10031749;29;20047;-66
2023/06/20 23:25:19;;;;;;;14.45;6.40;;;;;;;;;;10034654;29;20098;-67
2023/06/20 23:30:16;;;;;;;21.92;6.93;;;;;;;;;;10036476;29;20047;-69
2023/06/20 23:35:12;;;;;;;23.67;6.45;;;;;;;;;;10018404;29;20044;-68
2023/06/20 23:40:14;;;;;;;6.53;4.97;;;;;;;;;;10033157;29;20052;-64
2023/06/20 23:45:11;;;;;;;8.90;5.82;;;;;;;;;;10036266;29;20146;-69
2023/06/20 23:50:10;;;;;;;11.88;4.88;;;;;;;;;;10034695;29;20051;-69
2023/06/20 23:55:06;;;;;;;10.82;6.40;;;;;;;;;;10034954;29;21414;-68
